createdAt,value
2023-04-18T00:00:05.336Z,12.05
2023-04-18T00:02:36.515Z,11.65
2023-04-18T00:05:07.767Z,11.73
2023-04-18T00:07:36.423Z,11.59
2023-04-18T00:10:05.365Z,11.50
2023-04-18T00:12:34.484Z,11.54
2023-04-18T00:15:03.156Z,11.45
2023-04-18T00:17:32.046Z,11.27
2023-04-18T00:20:02.453Z,11.17
2023-04-18T00:22:32.314Z,11.29
2023-04-18T00:25:01.462Z,11.45
2023-04-18T00:27:29.780Z,11.68
2023-04-18T00:29:58.235Z,11.75
2023-04-18T00:32:26.555Z,11.71
2023-04-18T00:34:54.901Z,11.78
2023-04-18T00:37:23.202Z,11.74
2023-04-18T00:39:54.199Z,11.78
2023-04-18T00:42:22.916Z,11.45
2023-04-18T00:44:51.143Z,11.14
2023-04-18T00:47:19.393Z,10.94
2023-04-18T00:49:48.432Z,10.93
2023-04-18T00:52:17.849Z,10.95
2023-04-18T00:54:46.644Z,11.06
2023-04-18T00:57:17.043Z,10.88
2023-04-18T00:59:46.327Z,11.21
2023-04-18T01:02:14.831Z,11.38
2023-04-18T01:04:44.588Z,11.36
2023-04-18T01:07:13.494Z,11.30
2023-04-18T01:09:42.126Z,11.05
2023-04-18T01:12:11.307Z,11.02
2023-04-18T01:14:44.271Z,11.05
2023-04-18T01:17:16.624Z,11.03
2023-04-18T01:19:46.945Z,11.04
2023-04-18T01:22:16.014Z,10.70
2023-04-18T01:24:46.064Z,11.02
2023-04-18T01:27:14.876Z,10.95
2023-04-18T01:29:42.968Z,10.98
2023-04-18T01:32:11.301Z,10.73
2023-04-18T01:34:39.659Z,10.62
2023-04-18T01:37:08.104Z,10.69
2023-04-18T01:39:36.474Z,10.51
2023-04-18T01:42:06.021Z,10.44
2023-04-18T01:44:34.116Z,10.39
2023-04-18T01:47:02.529Z,10.46
2023-04-18T01:49:30.859Z,10.21
2023-04-18T01:51:59.037Z,10.69
2023-04-18T01:54:27.379Z,10.77
2023-04-18T01:56:55.595Z,10.62
2023-04-18T01:59:25.123Z,10.53
2023-04-18T02:01:53.626Z,10.55
2023-04-18T02:04:22.074Z,10.52
2023-04-18T02:06:50.276Z,10.55
2023-04-18T02:09:18.702Z,10.60
2023-04-18T02:11:46.884Z,10.61
2023-04-18T02:14:15.214Z,10.61
2023-04-18T02:16:45.163Z,10.70
2023-04-18T02:19:13.269Z,10.43
2023-04-18T02:21:41.996Z,10.50
2023-04-18T02:24:10.349Z,10.61
2023-04-18T02:26:38.528Z,10.65
2023-04-18T02:29:06.693Z,10.37
2023-04-18T02:31:34.901Z,10.42
2023-04-18T02:34:04.705Z,10.38
2023-04-18T02:36:33.344Z,10.45
2023-04-18T02:39:01.987Z,10.42
2023-04-18T02:41:30.144Z,10.44
2023-04-18T02:43:58.373Z,10.33
2023-04-18T02:46:26.794Z,10.38
2023-04-18T02:48:54.912Z,10.27
2023-04-18T02:51:24.453Z,10.25
2023-04-18T02:53:55.275Z,9.89
2023-04-18T02:56:24.461Z,9.89
2023-04-18T02:58:52.743Z,10.11
2023-04-18T03:01:21.235Z,9.88
2023-04-18T03:03:49.418Z,9.87
2023-04-18T03:06:17.631Z,9.69
2023-04-18T03:08:47.386Z,9.72
2023-04-18T03:11:15.558Z,9.38
2023-04-18T03:13:44.375Z,9.60
2023-04-18T03:16:12.993Z,9.48
2023-04-18T03:18:41.171Z,9.64
2023-04-18T03:21:09.247Z,9.73
2023-04-18T03:23:37.546Z,9.79
2023-04-18T03:26:08.448Z,9.86
2023-04-18T03:28:36.636Z,9.78
2023-04-18T03:31:05.141Z,9.57
2023-04-18T03:33:33.295Z,9.67
2023-04-18T03:36:01.570Z,9.45
2023-04-18T03:38:29.890Z,9.36
2023-04-18T03:40:58.335Z,9.39
2023-04-18T03:43:28.049Z,9.44
2023-04-18T03:45:57.432Z,9.31
2023-04-18T03:48:25.841Z,9.40
2023-04-18T03:50:53.976Z,9.36
2023-04-18T03:53:22.330Z,9.40
2023-04-18T03:55:50.862Z,9.54
2023-04-18T03:58:23.739Z,9.25
2023-04-18T04:00:53.428Z,9.29
2023-04-18T04:03:21.600Z,9.17
2023-04-18T04:05:49.993Z,9.21
2023-04-18T04:08:18.550Z,9.32
2023-04-18T04:10:46.676Z,9.37
2023-04-18T04:13:14.969Z,9.22
2023-04-18T04:15:43.300Z,9.21
2023-04-18T04:18:12.928Z,9.20
2023-04-18T04:20:41.286Z,9.16
2023-04-18T04:23:10.161Z,9.19
2023-04-18T04:25:38.798Z,9.10
2023-04-18T04:28:08.341Z,9.18
2023-04-18T04:30:37.583Z,9.49
2023-04-18T04:33:06.657Z,9.38
2023-04-18T04:35:36.912Z,9.41
2023-04-18T04:38:05.976Z,9.49
2023-04-18T04:40:34.283Z,9.32
2023-04-18T04:43:02.576Z,9.48
2023-04-18T04:45:31.266Z,9.36
2023-04-18T04:47:59.663Z,9.48
2023-04-18T04:50:28.306Z,9.18
2023-04-18T04:52:58.728Z,9.27
2023-04-18T04:55:26.870Z,9.38
2023-04-18T04:57:55.949Z,9.38
2023-04-18T05:00:24.636Z,9.10
2023-04-18T05:02:54.685Z,9.03
2023-04-18T05:05:23.076Z,9.22
2023-04-18T05:07:51.767Z,9.35
2023-04-18T05:10:21.837Z,9.27
2023-04-18T05:12:50.059Z,9.20
2023-04-18T05:15:19.402Z,9.24
2023-04-18T05:17:47.613Z,9.24
2023-04-18T05:20:16.181Z,9.32
2023-04-18T05:22:44.387Z,8.77
2023-04-18T05:25:13.032Z,9.37
2023-04-18T05:27:42.942Z,9.45
2023-04-18T05:30:11.967Z,9.31
2023-04-18T05:32:40.188Z,9.35
2023-04-18T05:35:09.242Z,9.10
2023-04-18T05:37:37.556Z,9.21
2023-04-18T05:40:06.734Z,9.32
2023-04-18T05:42:34.985Z,9.47
2023-04-18T05:45:05.154Z,9.66
2023-04-18T05:47:33.801Z,9.74
2023-04-18T05:50:02.167Z,9.89
2023-04-18T05:52:30.336Z,9.86
2023-04-18T05:54:58.503Z,9.72
2023-04-18T05:57:26.877Z,9.67
2023-04-18T05:59:55.865Z,9.76
2023-04-18T06:02:25.791Z,10.13
2023-04-18T06:04:54.356Z,10.16
2023-04-18T06:07:25.189Z,10.43
2023-04-18T06:09:54.243Z,10.12
2023-04-18T06:12:22.651Z,10.31
2023-04-18T06:14:51.322Z,10.13
2023-04-18T06:17:19.504Z,10.53
2023-04-18T06:19:49.352Z,10.66
2023-04-18T06:22:17.614Z,10.61
2023-04-18T06:24:46.067Z,10.50
2023-04-18T06:27:24.412Z,10.58
2023-04-18T06:29:58.745Z,10.76
2023-04-18T06:32:27.198Z,10.76
2023-04-18T06:34:57.090Z,10.76
2023-04-18T06:37:25.655Z,10.81
2023-04-18T06:39:53.932Z,10.97
2023-04-18T06:42:22.660Z,10.96
2023-04-18T06:44:51.230Z,11.09
2023-04-18T06:47:19.517Z,11.21
2023-04-18T06:49:48.321Z,11.43
2023-04-18T06:52:18.249Z,11.49
2023-04-18T06:54:46.432Z,11.64
2023-04-18T06:57:14.602Z,11.61
2023-04-18T06:59:42.794Z,11.76
2023-04-18T07:02:10.956Z,11.80
2023-04-18T07:04:39.367Z,11.85
2023-04-18T07:07:07.817Z,12.08
2023-04-18T07:09:37.523Z,12.24
2023-04-18T07:12:05.823Z,12.34
2023-04-18T07:14:34.386Z,12.51
2023-04-18T07:17:03.006Z,12.64
2023-04-18T07:19:31.250Z,12.78
2023-04-18T07:21:59.487Z,12.97
2023-04-18T07:24:27.954Z,13.05
2023-04-18T07:26:58.157Z,12.96
2023-04-18T07:29:26.580Z,12.78
2023-04-18T07:31:54.688Z,13.12
2023-04-18T07:34:23.267Z,13.17
2023-04-18T07:36:51.389Z,13.34
2023-04-18T07:39:19.844Z,13.44
2023-04-18T07:41:48.109Z,13.76
2023-04-18T07:44:18.338Z,13.68
2023-04-18T07:46:47.279Z,13.55
2023-04-18T07:49:15.944Z,13.67
2023-04-18T07:51:44.286Z,13.79
2023-04-18T07:54:12.421Z,13.92
2023-04-18T07:56:41.062Z,14.25
2023-04-18T07:59:09.085Z,14.29
2023-04-18T08:01:38.664Z,14.48
2023-04-18T08:04:07.441Z,14.49
2023-04-18T08:06:35.836Z,14.38
2023-04-18T08:09:05.997Z,14.32
2023-04-18T08:11:35.049Z,14.94
2023-04-18T08:14:03.414Z,14.74
2023-04-18T08:16:32.001Z,14.89
2023-04-18T08:19:01.729Z,14.88
2023-04-18T08:21:29.869Z,15.07
2023-04-18T08:23:58.292Z,15.60
2023-04-18T08:26:27.228Z,16.01
2023-04-18T08:28:55.434Z,16.38
2023-04-18T08:31:23.612Z,16.77
2023-04-18T08:33:52.020Z,17.76
2023-04-18T08:36:21.931Z,16.93
2023-04-18T08:38:50.337Z,17.10
2023-04-18T08:41:22.210Z,16.73
2023-04-18T08:43:50.285Z,16.75
2023-04-18T08:46:19.248Z,16.99
2023-04-18T08:48:51.400Z,16.60
2023-04-18T08:51:19.766Z,16.62
2023-04-18T08:53:50.763Z,16.40
2023-04-18T08:56:22.378Z,16.53
2023-04-18T08:58:50.809Z,16.42
2023-04-18T09:01:19.013Z,16.60
2023-04-18T09:03:47.161Z,16.71
2023-04-18T09:06:19.119Z,16.63
2023-04-18T09:08:59.884Z,16.19
2023-04-18T09:11:29.967Z,16.21
2023-04-18T09:13:59.517Z,16.59
2023-04-18T09:16:29.437Z,16.69
2023-04-18T09:19:12.271Z,16.73
2023-04-18T09:21:42.086Z,16.55
2023-04-18T09:24:24.425Z,16.22
2023-04-18T09:26:54.213Z,16.27
2023-04-18T09:29:23.626Z,16.11
2023-04-18T09:32:01.490Z,16.39
2023-04-18T09:34:30.295Z,16.39
2023-04-18T09:37:10.301Z,16.52
2023-04-18T09:39:40.863Z,16.97
2023-04-18T09:42:10.586Z,16.96
2023-04-18T09:44:39.957Z,16.42
2023-04-18T09:47:08.897Z,16.45
2023-04-18T09:49:37.401Z,16.60
2023-04-18T09:52:08.980Z,16.56
2023-04-18T09:54:41.455Z,16.67
2023-04-18T09:57:13.115Z,16.87
2023-04-18T09:59:47.986Z,16.80
2023-04-18T10:02:22.227Z,16.64
2023-04-18T10:04:52.214Z,16.57
2023-04-18T10:07:21.462Z,16.82
2023-04-18T10:09:51.437Z,16.62
2023-04-18T10:12:20.480Z,16.84
2023-04-18T10:14:49.128Z,16.68
2023-04-18T10:17:17.291Z,16.72
2023-04-18T10:19:47.033Z,16.78
2023-04-18T10:22:15.323Z,16.86
2023-04-18T10:24:54.194Z,16.90
2023-04-18T10:28:03.972Z,16.82
2023-04-18T10:30:52.341Z,17.24
2023-04-18T10:33:30.794Z,17.34
2023-04-18T10:36:06.496Z,17.60
2023-04-18T10:38:35.438Z,17.51
2023-04-18T10:41:23.737Z,16.91
2023-04-18T10:44:18.491Z,16.93
2023-04-18T10:47:33.116Z,17.03
2023-04-18T10:50:06.768Z,16.97
2023-04-18T10:52:35.943Z,17.08
2023-04-18T10:55:17.977Z,17.26
2023-04-18T10:57:49.416Z,17.42
2023-04-18T11:00:20.638Z,17.44
2023-04-18T11:02:56.088Z,17.41
2023-04-18T11:05:26.766Z,17.46
2023-04-18T11:07:55.462Z,17.29
2023-04-18T11:10:25.658Z,17.49
2023-04-18T11:12:56.027Z,17.43
2023-04-18T11:15:27.446Z,17.61
2023-04-18T11:17:59.353Z,17.33
2023-04-18T11:20:27.852Z,17.38
2023-04-18T11:22:57.655Z,17.57
2023-04-18T11:25:28.855Z,17.76
2023-04-18T11:28:00.864Z,17.44
2023-04-18T11:30:31.551Z,17.66
2023-04-18T11:32:59.782Z,17.69
2023-04-18T11:35:28.452Z,17.48
2023-04-18T11:37:56.889Z,17.71
2023-04-18T11:40:25.468Z,17.64
2023-04-18T11:42:55.843Z,17.76
2023-04-18T11:45:26.059Z,17.47
2023-04-18T11:47:58.216Z,17.43
2023-04-18T11:50:27.274Z,17.83
2023-04-18T11:52:57.187Z,17.74
2023-04-18T11:55:27.350Z,17.54
2023-04-18T11:57:56.976Z,17.89
2023-04-18T12:00:35.339Z,17.90
2023-04-18T12:03:05.971Z,18.13
2023-04-18T12:05:38.312Z,18.20
2023-04-18T12:08:08.278Z,18.23
2023-04-18T12:10:37.044Z,18.04
2023-04-18T12:13:09.043Z,17.74
2023-04-18T12:15:42.366Z,18.05
2023-04-18T12:18:12.282Z,17.82
2023-04-18T12:20:46.472Z,18.02
2023-04-18T12:23:30.736Z,17.97
2023-04-18T12:26:03.617Z,18.21
2023-04-18T12:28:32.416Z,18.30
2023-04-18T12:31:02.470Z,18.37
2023-04-18T12:33:31.983Z,18.53
2023-04-18T12:36:00.918Z,18.67
2023-04-18T12:38:31.949Z,18.74
2023-04-18T12:41:00.177Z,18.64
2023-04-18T12:43:28.608Z,18.49
2023-04-18T12:45:57.002Z,18.50
2023-04-18T12:48:26.859Z,18.48
2023-04-18T12:50:55.450Z,18.35
2023-04-18T12:53:23.508Z,18.46
2023-04-18T12:55:51.751Z,18.45
2023-04-18T12:58:20.952Z,18.56
2023-04-18T13:00:49.320Z,18.61
2023-04-18T13:03:18.420Z,18.42
2023-04-18T13:05:48.272Z,18.39
2023-04-18T13:08:17.960Z,18.29
2023-04-18T13:10:47.753Z,18.67
2023-04-18T13:13:17.012Z,18.63
2023-04-18T13:15:45.161Z,18.53
2023-04-18T13:18:13.346Z,18.55
2023-04-18T13:20:42.798Z,18.54
2023-04-18T13:23:13.516Z,18.48
2023-04-18T13:25:42.012Z,18.57
2023-04-18T13:28:10.616Z,18.58
2023-04-18T13:30:39.556Z,18.44
2023-04-18T13:33:07.846Z,18.45
2023-04-18T13:35:38.523Z,18.66
2023-04-18T13:38:06.689Z,18.42
2023-04-18T13:40:38.886Z,18.57
2023-04-18T13:43:07.670Z,18.63
2023-04-18T13:45:36.011Z,18.66
2023-04-18T13:48:04.460Z,18.75
2023-04-18T13:50:32.910Z,18.55
2023-04-18T13:53:01.226Z,18.46
2023-04-18T13:55:29.507Z,18.65
2023-04-18T13:57:58.996Z,18.60
2023-04-18T14:00:27.910Z,18.91
2023-04-18T14:02:57.763Z,18.73
2023-04-18T14:05:26.140Z,18.52
2023-04-18T14:07:56.317Z,18.59
2023-04-18T14:10:25.518Z,18.57
2023-04-18T14:12:53.594Z,18.80
2023-04-18T14:15:23.720Z,18.63
2023-04-18T14:17:51.954Z,18.79
2023-04-18T14:20:20.157Z,18.97
2023-04-18T14:22:49.262Z,18.63
2023-04-18T14:25:19.253Z,18.74
2023-04-18T14:27:49.075Z,18.76
2023-04-18T14:30:17.346Z,18.50
2023-04-18T14:32:47.264Z,18.80
2023-04-18T14:35:16.579Z,18.58
2023-04-18T14:37:44.805Z,18.96
2023-04-18T14:40:13.925Z,18.84
2023-04-18T14:42:42.088Z,18.80
2023-04-18T14:45:11.974Z,18.95
2023-04-18T14:47:40.596Z,19.02
2023-04-18T14:50:12.590Z,18.90
2023-04-18T14:52:41.857Z,19.04
2023-04-18T14:55:11.074Z,19.07
2023-04-18T14:57:39.964Z,19.01
2023-04-18T15:00:10.652Z,18.87
2023-04-18T15:02:39.067Z,19.02
2023-04-18T15:05:10.448Z,18.86
2023-04-18T15:07:38.601Z,19.14
2023-04-18T15:10:12.907Z,18.96
2023-04-18T15:12:41.854Z,18.91
2023-04-18T15:15:11.610Z,18.79
2023-04-18T15:17:39.834Z,18.81
2023-04-18T15:20:10.835Z,18.96
2023-04-18T15:22:39.119Z,18.81
2023-04-18T15:25:08.371Z,18.97
2023-04-18T15:27:37.000Z,18.74
2023-04-18T15:30:05.800Z,18.75
2023-04-18T15:32:34.010Z,18.83
2023-04-18T15:35:03.183Z,18.73
2023-04-18T15:37:32.772Z,18.73
2023-04-18T15:40:00.869Z,18.85
2023-04-18T15:42:29.382Z,18.60
2023-04-18T15:44:57.713Z,18.74
2023-04-18T15:47:25.904Z,19.12
2023-04-18T15:49:54.813Z,18.97
2023-04-18T15:52:23.002Z,18.80
2023-04-18T15:54:53.751Z,18.63
2023-04-18T15:57:22.357Z,18.70
2023-04-18T15:59:50.954Z,18.47
2023-04-18T16:02:19.575Z,18.34
2023-04-18T16:04:47.899Z,18.31
2023-04-18T16:07:16.398Z,18.47
2023-04-18T16:09:46.673Z,18.27
2023-04-18T16:12:16.648Z,18.58
2023-04-18T16:14:44.794Z,18.68
2023-04-18T16:17:13.011Z,18.57
2023-04-18T16:19:41.294Z,18.42
2023-04-18T16:22:10.670Z,18.29
2023-04-18T16:24:40.867Z,18.24
2023-04-18T16:27:10.330Z,18.34
2023-04-18T16:29:40.060Z,18.14
2023-04-18T16:32:09.294Z,18.26
2023-04-18T16:34:39.465Z,18.17
2023-04-18T16:37:09.007Z,18.23
2023-04-18T16:39:37.519Z,18.21
2023-04-18T16:42:05.917Z,18.05
2023-04-18T16:44:35.043Z,18.08
2023-04-18T16:47:05.239Z,18.05
2023-04-18T16:49:33.881Z,18.20
2023-04-18T16:52:01.937Z,17.86
2023-04-18T16:54:30.534Z,18.03
2023-04-18T16:56:58.791Z,18.25
2023-04-18T16:59:27.051Z,18.05
2023-04-18T17:01:55.695Z,18.04
2023-04-18T17:04:27.350Z,18.00
2023-04-18T17:06:58.877Z,17.77
2023-04-18T17:09:27.571Z,17.59
2023-04-18T17:11:56.013Z,17.84
2023-04-18T17:14:25.784Z,18.00
2023-04-18T17:16:54.435Z,17.96
2023-04-18T17:19:24.530Z,18.00
2023-04-18T17:21:54.299Z,17.75
2023-04-18T17:24:23.043Z,17.79
2023-04-18T17:26:51.460Z,17.84
2023-04-18T17:29:19.596Z,17.78
2023-04-18T17:31:48.198Z,17.76
2023-04-18T17:34:16.722Z,17.52
2023-04-18T17:36:45.002Z,17.41
2023-04-18T17:39:16.905Z,17.49
2023-04-18T17:41:49.655Z,17.37
2023-04-18T17:44:17.953Z,17.48
2023-04-18T17:46:46.790Z,17.47
2023-04-18T17:49:16.565Z,17.52
2023-04-18T17:51:47.340Z,17.38
2023-04-18T17:54:16.910Z,17.54
2023-04-18T17:56:45.725Z,17.56
2023-04-18T17:59:14.439Z,17.61
2023-04-18T18:01:43.114Z,17.24
2023-04-18T18:04:11.482Z,17.32
2023-04-18T18:06:39.701Z,17.45
2023-04-18T18:09:08.285Z,17.46
2023-04-18T18:11:40.113Z,17.40
2023-04-18T18:14:08.403Z,17.45
2023-04-18T18:16:39.464Z,17.56
2023-04-18T18:19:08.627Z,17.53
2023-04-18T18:21:37.267Z,17.28
2023-04-18T18:24:06.629Z,17.24
2023-04-18T18:26:36.208Z,16.92
2023-04-18T18:29:09.548Z,17.33
2023-04-18T18:31:38.201Z,17.30
2023-04-18T18:34:08.885Z,17.08
2023-04-18T18:36:37.037Z,17.16
2023-04-18T18:39:05.532Z,16.91
2023-04-18T18:41:34.044Z,16.93
2023-04-18T18:44:02.624Z,16.96
2023-04-18T18:46:33.239Z,16.96
2023-04-18T18:49:01.806Z,16.98
2023-04-18T18:51:30.051Z,17.08
2023-04-18T18:53:58.530Z,17.18
2023-04-18T18:56:26.841Z,16.60
2023-04-18T18:58:56.708Z,16.97
2023-04-18T19:01:25.898Z,16.73
2023-04-18T19:03:55.808Z,16.69
2023-04-18T19:06:24.059Z,16.65
2023-04-18T19:08:52.758Z,16.72
2023-04-18T19:11:21.289Z,16.80
2023-04-18T19:13:52.187Z,16.82
2023-04-18T19:16:21.156Z,16.62
2023-04-18T19:18:50.765Z,16.46
2023-04-18T19:21:20.831Z,16.33
2023-04-18T19:23:49.305Z,16.22
2023-04-18T19:26:18.822Z,16.26
2023-04-18T19:28:47.291Z,16.24
2023-04-18T19:31:15.644Z,16.14
2023-04-18T19:33:43.885Z,16.17
2023-04-18T19:36:12.023Z,16.28
2023-04-18T19:38:41.884Z,16.31
2023-04-18T19:41:13.554Z,16.40
2023-04-18T19:43:42.989Z,16.35
2023-04-18T19:46:11.407Z,16.48
2023-04-18T19:48:40.821Z,16.42
2023-04-18T19:51:09.124Z,16.52
2023-04-18T19:53:37.277Z,16.47
2023-04-18T19:56:10.990Z,16.35
2023-04-18T19:58:45.296Z,16.24
2023-04-18T20:01:14.253Z,16.29
2023-04-18T20:03:42.795Z,16.45
2023-04-18T20:06:13.322Z,16.28
2023-04-18T20:08:42.847Z,16.39
2023-04-18T20:11:13.843Z,16.42
2023-04-18T20:13:42.612Z,16.44
2023-04-18T20:16:12.459Z,16.13
2023-04-18T20:18:42.353Z,16.15
2023-04-18T20:21:11.319Z,15.96
2023-04-18T20:23:41.802Z,16.37
2023-04-18T20:26:10.338Z,16.40
2023-04-18T20:28:40.006Z,16.42
2023-04-18T20:31:08.220Z,16.36
2023-04-18T20:33:38.020Z,16.22
2023-04-18T20:36:06.747Z,16.14
2023-04-18T20:38:35.340Z,16.02
2023-04-18T20:41:03.630Z,15.83
2023-04-18T20:43:36.856Z,15.89
2023-04-18T20:46:07.334Z,15.57
2023-04-18T20:48:35.782Z,15.56
2023-04-18T20:51:04.102Z,15.54
2023-04-18T20:53:32.361Z,15.51
2023-04-18T20:56:02.980Z,15.59
2023-04-18T20:58:31.305Z,15.57
2023-04-18T21:00:59.432Z,15.55
2023-04-18T21:03:29.491Z,15.59
2023-04-18T21:05:58.296Z,15.62
2023-04-18T21:08:26.627Z,15.46
2023-04-18T21:10:54.865Z,15.47
2023-04-18T21:13:23.014Z,15.40
2023-04-18T21:15:52.123Z,15.47
2023-04-18T21:18:20.528Z,15.31
2023-04-18T21:20:50.467Z,15.36
2023-04-18T21:23:18.743Z,15.38
2023-04-18T21:25:47.020Z,15.48
2023-04-18T21:28:15.350Z,15.45
2023-04-18T21:30:43.593Z,15.51
2023-04-18T21:33:11.828Z,15.49
2023-04-18T21:35:40.271Z,15.38
2023-04-18T21:38:10.050Z,15.42
2023-04-18T21:40:38.731Z,15.48
2023-04-18T21:43:07.021Z,15.40
2023-04-18T21:45:35.200Z,15.24
2023-04-18T21:48:03.567Z,15.27
2023-04-18T21:50:31.887Z,15.28
2023-04-18T21:53:00.054Z,15.28
2023-04-18T21:55:29.959Z,15.13
2023-04-18T21:57:58.379Z,14.84
2023-04-18T22:00:27.706Z,14.68
2023-04-18T22:02:56.049Z,14.63
2023-04-18T22:05:26.520Z,14.61
2023-04-18T22:07:58.517Z,14.69
2023-04-18T22:10:27.423Z,14.48
2023-04-18T22:12:56.898Z,14.45
2023-04-18T22:15:27.198Z,13.96
2023-04-18T22:17:56.053Z,14.18
2023-04-18T22:20:25.678Z,14.18
2023-04-18T22:22:55.493Z,14.15
2023-04-18T22:25:24.200Z,14.24
2023-04-18T22:27:52.394Z,14.21
2023-04-18T22:30:22.134Z,14.33
2023-04-18T22:32:50.566Z,14.09
2023-04-18T22:35:18.934Z,14.04
2023-04-18T22:37:47.053Z,14.15
2023-04-18T22:40:16.700Z,14.28
2023-04-18T22:42:45.053Z,14.24
2023-04-18T22:45:13.782Z,14.28
2023-04-18T22:47:43.461Z,14.49
2023-04-18T22:50:12.232Z,14.39
2023-04-18T22:52:40.460Z,14.37
2023-04-18T22:55:09.817Z,14.50
2023-04-18T22:57:39.993Z,14.56
2023-04-18T23:00:10.226Z,14.21
2023-04-18T23:02:38.534Z,14.25
2023-04-18T23:05:10.916Z,14.39
2023-04-18T23:07:39.307Z,14.47
2023-04-18T23:10:08.483Z,14.42
2023-04-18T23:12:36.945Z,14.14
2023-04-18T23:15:05.951Z,14.13
2023-04-18T23:17:35.006Z,13.98
2023-04-18T23:20:04.512Z,13.84
2023-04-18T23:22:34.505Z,13.84
2023-04-18T23:25:02.724Z,13.64
2023-04-18T23:27:30.894Z,13.52
2023-04-18T23:29:59.527Z,13.59
2023-04-18T23:32:29.170Z,13.42
2023-04-18T23:35:05.074Z,13.42
2023-04-18T23:37:36.397Z,13.39
2023-04-18T23:40:09.579Z,12.91
2023-04-18T23:42:37.879Z,13.36
2023-04-18T23:45:06.895Z,13.44
2023-04-18T23:47:35.115Z,13.35
2023-04-18T23:50:04.016Z,13.02
2023-04-18T23:52:32.095Z,13.10
2023-04-18T23:55:02.790Z,12.88
2023-04-18T23:57:31.171Z,12.99
2023-04-18T23:59:59.459Z,12.97
